createdAt,value
2022-08-22T00:00:30.035Z,3.63
2022-08-22T00:03:06.551Z,4.47
2022-08-22T00:03:09.594Z,3.83
2022-08-22T00:03:11.356Z,3.00
2022-08-22T00:03:18.447Z,3.38
2022-08-22T00:06:02.367Z,3.45
2022-08-22T00:08:40.711Z,3.80
2022-08-22T00:11:16.331Z,3.10
2022-08-22T00:14:01.680Z,3.78
2022-08-22T00:16:36.302Z,3.17
2022-08-22T00:19:13.474Z,3.60
2022-08-22T00:21:50.320Z,3.88
2022-08-22T00:24:27.794Z,4.18
2022-08-22T00:27:00.548Z,3.50
2022-08-22T00:29:34.769Z,4.07
2022-08-22T00:32:10.289Z,3.65
2022-08-22T00:34:45.521Z,3.67
2022-08-22T00:37:24.210Z,3.92
2022-08-22T00:39:56.645Z,3.20
2022-08-22T00:42:45.410Z,3.53
2022-08-22T00:45:54.087Z,4.35
2022-08-22T00:48:37.338Z,4.53
2022-08-22T00:51:46.388Z,3.88
2022-08-22T00:54:29.054Z,4.13
2022-08-22T00:59:46.806Z,4.10
2022-08-22T01:02:28.643Z,3.80
2022-08-22T01:05:11.447Z,4.10
2022-08-22T01:08:15.792Z,4.50
2022-08-22T01:11:06.581Z,4.93
2022-08-22T01:13:57.698Z,5.00
2022-08-22T01:16:45.956Z,5.20
2022-08-22T01:19:45.782Z,4.55
2022-08-22T01:22:43.532Z,4.15
2022-08-22T01:26:02.504Z,2.97
2022-08-22T01:29:12.961Z,3.90
2022-08-22T01:32:17.174Z,4.93
2022-08-22T01:35:15.971Z,4.35
2022-08-22T01:38:25.664Z,4.18
2022-08-22T01:41:25.571Z,4.18
2022-08-22T01:44:05.018Z,4.20
2022-08-22T01:46:44.108Z,4.05
2022-08-22T01:49:19.261Z,4.40
2022-08-22T01:51:56.666Z,4.25
2022-08-22T01:54:37.505Z,4.70
2022-08-22T01:57:09.257Z,5.20
2022-08-22T01:59:42.597Z,4.95
2022-08-22T02:02:48.042Z,4.63
2022-08-22T02:05:27.794Z,4.25
2022-08-22T02:08:03.826Z,4.03
2022-08-22T02:10:49.468Z,3.72
2022-08-22T02:13:31.719Z,3.78
2022-08-22T02:16:09.606Z,3.95
2022-08-22T02:18:57.704Z,4.50
2022-08-22T02:21:40.745Z,4.40
2022-08-22T02:24:22.829Z,4.05
2022-08-22T02:27:04.471Z,4.47
2022-08-22T02:29:40.255Z,4.10
2022-08-22T02:32:18.460Z,4.68
2022-08-22T02:34:56.773Z,4.00
2022-08-22T02:37:36.266Z,4.57
2022-08-22T02:40:13.852Z,3.47
2022-08-22T02:42:46.943Z,3.67
2022-08-22T02:45:25.721Z,4.10
2022-08-22T02:48:02.537Z,4.20
2022-08-22T02:50:38.929Z,5.10
2022-08-22T02:53:13.752Z,4.68
2022-08-22T02:55:51.701Z,3.63
2022-08-22T02:58:27.582Z,3.67
2022-08-22T03:01:22.267Z,3.30
2022-08-22T03:03:51.928Z,4.50
2022-08-22T03:06:40.257Z,3.38
2022-08-22T03:09:24.883Z,4.32
2022-08-22T03:12:12.751Z,3.78
2022-08-22T03:14:48.506Z,4.00
2022-08-22T03:17:24.065Z,4.40
2022-08-22T03:19:57.727Z,3.58
2022-08-22T03:22:35.021Z,3.80
2022-08-22T03:25:09.688Z,3.55
2022-08-22T03:27:46.163Z,4.20
2022-08-22T03:30:21.414Z,3.92
2022-08-22T03:32:54.780Z,3.90
2022-08-22T03:35:52.858Z,2.92
2022-08-22T03:38:26.064Z,3.00
2022-08-22T03:41:19.422Z,4.03
2022-08-22T03:44:09.809Z,4.20
2022-08-22T03:47:04.053Z,3.47
2022-08-22T03:50:14.925Z,4.05
2022-08-22T03:53:15.543Z,3.60
2022-08-22T03:56:28.233Z,3.97
2022-08-22T03:59:19.593Z,4.10
2022-08-22T04:02:27.540Z,3.88
2022-08-22T04:05:34.404Z,3.85
2022-08-22T04:08:42.652Z,4.00
2022-08-22T04:11:40.116Z,3.88
2022-08-22T04:14:40.710Z,4.53
2022-08-22T04:17:32.298Z,4.25
2022-08-22T04:20:41.759Z,4.00
2022-08-22T04:23:51.855Z,4.57
2022-08-22T04:26:28.800Z,4.30
2022-08-22T04:29:09.417Z,4.57
2022-08-22T04:31:47.457Z,4.80
2022-08-22T04:34:23.947Z,5.10
2022-08-22T04:36:57.091Z,5.53
2022-08-22T04:39:35.602Z,5.00
2022-08-22T04:42:31.644Z,5.25
2022-08-22T04:45:06.304Z,5.78
2022-08-22T04:47:39.255Z,5.97
2022-08-22T04:50:16.535Z,5.60
2022-08-22T04:53:05.912Z,4.68
2022-08-22T04:55:41.260Z,5.03
2022-08-22T04:58:23.346Z,5.28
2022-08-22T05:00:58.499Z,5.25
2022-08-22T05:03:30.150Z,4.82
2022-08-22T05:06:02.667Z,4.93
2022-08-22T05:08:34.333Z,5.30
2022-08-22T05:11:06.877Z,5.43
2022-08-22T05:16:15.946Z,4.60
2022-08-22T05:18:50.060Z,5.68
2022-08-22T05:21:27.133Z,5.38
2022-08-22T05:24:00.540Z,5.40
2022-08-22T05:26:31.576Z,5.55
2022-08-22T05:29:08.075Z,5.80
2022-08-22T05:31:39.651Z,5.70
2022-08-22T05:34:14.673Z,6.20
2022-08-22T05:36:49.989Z,4.63
2022-08-22T05:39:20.768Z,4.88
2022-08-22T05:41:51.410Z,5.00
2022-08-22T05:44:22.083Z,5.22
2022-08-22T05:46:55.362Z,4.60
2022-08-22T05:49:31.200Z,5.38
2022-08-22T05:52:10.597Z,4.38
2022-08-22T05:54:50.609Z,4.90
2022-08-22T05:57:29.008Z,4.35
2022-08-22T06:00:04.073Z,4.85
2022-08-22T06:02:48.486Z,4.80
2022-08-22T06:05:23.857Z,5.30
2022-08-22T06:07:59.872Z,6.30
2022-08-22T06:10:38.173Z,4.72
2022-08-22T06:13:11.932Z,4.55
2022-08-22T06:15:48.183Z,5.45
2022-08-22T06:18:22.140Z,5.45
2022-08-22T06:20:53.996Z,6.32
2022-08-22T06:23:27.977Z,5.78
2022-08-22T06:26:00.934Z,6.38
2022-08-22T06:28:36.119Z,6.45
2022-08-22T06:31:06.395Z,6.30
2022-08-22T06:33:45.449Z,5.70
2022-08-22T06:36:32.445Z,5.80
2022-08-22T06:39:15.956Z,6.03
2022-08-22T06:41:52.211Z,6.13
2022-08-22T06:44:25.215Z,5.85
2022-08-22T06:46:56.584Z,5.55
2022-08-22T06:49:26.912Z,6.00
2022-08-22T06:52:01.430Z,6.20
2022-08-22T06:54:36.657Z,5.97
2022-08-22T06:57:06.722Z,6.00
2022-08-22T06:59:39.497Z,6.03
2022-08-22T07:02:23.254Z,6.20
2022-08-22T07:04:53.001Z,6.30
2022-08-22T07:07:21.669Z,6.50
2022-08-22T07:09:55.646Z,7.25
2022-08-22T07:12:30.043Z,6.82
2022-08-22T07:15:12.135Z,7.20
2022-08-22T07:17:47.972Z,7.30
2022-08-22T07:20:24.461Z,7.20
2022-08-22T07:22:56.265Z,7.57
2022-08-22T07:25:26.623Z,5.53
2022-08-22T07:28:07.694Z,6.85
2022-08-22T07:30:50.893Z,7.03
2022-08-22T07:33:33.323Z,6.82
2022-08-22T07:38:43.015Z,7.18
2022-08-22T07:41:16.716Z,7.20
2022-08-22T07:43:49.696Z,5.85
2022-08-22T07:46:28.135Z,6.93
2022-08-22T07:49:09.045Z,6.97
2022-08-22T07:51:44.068Z,6.55
2022-08-22T07:54:15.795Z,6.55
2022-08-22T07:56:58.410Z,6.85
2022-08-22T07:59:28.480Z,7.07
2022-08-22T08:01:59.868Z,6.55
2022-08-22T08:04:34.132Z,7.17
2022-08-22T08:07:08.800Z,7.80
2022-08-22T08:09:42.596Z,7.28
2022-08-22T08:12:14.144Z,6.30
2022-08-22T08:14:45.270Z,6.38
2022-08-22T08:17:18.666Z,7.20
2022-08-22T08:19:48.190Z,6.15
2022-08-22T08:22:19.597Z,7.35
2022-08-22T08:24:48.930Z,7.17
2022-08-22T08:27:39.930Z,7.28
2022-08-22T08:30:15.475Z,6.57
2022-08-22T08:32:48.210Z,6.95
2022-08-22T08:35:23.483Z,5.80
2022-08-22T08:38:00.903Z,6.13
2022-08-22T08:40:59.938Z,7.18
2022-08-22T08:43:41.929Z,6.45
2022-08-22T08:46:41.209Z,6.65
2022-08-22T08:50:01.333Z,6.75
2022-08-22T08:52:51.090Z,6.82
2022-08-22T08:55:34.809Z,6.15
2022-08-22T08:58:22.023Z,6.50
2022-08-22T09:01:03.347Z,6.43
2022-08-22T09:04:06.862Z,6.55
2022-08-22T09:07:09.394Z,6.90
2022-08-22T09:09:52.734Z,6.30
2022-08-22T09:12:56.028Z,6.07
2022-08-22T09:16:04.907Z,6.28
2022-08-22T09:18:52.270Z,5.97
2022-08-22T09:21:53.926Z,6.75
2022-08-22T09:25:07.711Z,6.40
2022-08-22T09:27:39.660Z,5.57
2022-08-22T09:30:14.399Z,5.80
2022-08-22T09:32:54.765Z,5.30
2022-08-22T09:35:30.908Z,5.38
2022-08-22T09:38:24.536Z,6.40
2022-08-22T09:41:03.343Z,7.05
2022-08-22T09:43:41.864Z,5.57
2022-08-22T09:46:31.398Z,5.70
2022-08-22T09:49:12.934Z,5.40
2022-08-22T09:51:46.300Z,6.25
2022-08-22T09:54:35.111Z,6.13
2022-08-22T09:57:26.839Z,6.72
2022-08-22T10:00:23.979Z,6.00
2022-08-22T10:03:09.661Z,7.30
2022-08-22T10:05:47.064Z,6.57
2022-08-22T10:08:32.228Z,6.85
2022-08-22T10:11:26.160Z,6.07
2022-08-22T10:14:03.697Z,6.05
2022-08-22T10:16:49.708Z,7.05
2022-08-22T10:19:26.650Z,6.55
2022-08-22T10:22:30.057Z,7.03
2022-08-22T10:25:34.658Z,7.45
2022-08-22T10:28:18.134Z,7.63
2022-08-22T10:31:02.710Z,7.70
2022-08-22T10:33:36.526Z,5.75
2022-08-22T10:36:11.699Z,6.13
2022-08-22T10:38:46.802Z,5.93
2022-08-22T10:41:27.131Z,6.05
2022-08-22T10:44:04.170Z,5.90
2022-08-22T10:46:39.052Z,5.65
2022-08-22T10:49:19.818Z,5.93
2022-08-22T10:51:56.517Z,6.30
2022-08-22T10:54:41.189Z,6.75
2022-08-22T10:57:22.747Z,6.03
2022-08-22T11:00:00.970Z,7.88
2022-08-22T11:02:53.111Z,9.18
2022-08-22T11:08:06.476Z,8.82
2022-08-22T11:10:52.221Z,7.43
2022-08-22T11:13:30.166Z,7.57
2022-08-22T11:16:09.094Z,7.38
2022-08-22T11:19:02.000Z,6.80
2022-08-22T11:21:47.824Z,7.07
2022-08-22T11:24:56.348Z,6.57
2022-08-22T11:27:39.919Z,6.90
2022-08-22T11:30:18.255Z,6.88
2022-08-22T11:33:13.796Z,6.55
2022-08-22T11:35:51.960Z,7.30
2022-08-22T11:38:33.764Z,7.25
2022-08-22T11:41:09.736Z,7.32
2022-08-22T11:43:56.810Z,7.15
2022-08-22T11:46:31.232Z,8.02
2022-08-22T11:49:32.711Z,7.10
2022-08-22T11:52:13.102Z,7.13
2022-08-22T11:55:01.731Z,6.80
2022-08-22T11:57:37.453Z,6.15
2022-08-22T12:00:21.784Z,7.57
2022-08-22T12:03:15.763Z,6.53
2022-08-22T12:05:47.426Z,6.50
2022-08-22T12:08:28.368Z,7.20
2022-08-22T12:11:03.560Z,6.50
2022-08-22T12:13:49.800Z,6.68
2022-08-22T12:16:25.811Z,7.03
2022-08-22T12:19:06.018Z,7.28
2022-08-22T12:22:00.573Z,6.50
2022-08-22T12:24:38.313Z,6.20
2022-08-22T12:27:28.001Z,6.78
2022-08-22T12:30:13.759Z,6.80
2022-08-22T12:33:20.774Z,6.72
2022-08-22T12:36:03.655Z,6.65
2022-08-22T12:38:57.644Z,7.63
2022-08-22T12:41:46.694Z,7.35
2022-08-22T12:44:36.776Z,8.82
2022-08-22T12:47:19.904Z,12.10
2022-08-22T12:50:05.126Z,11.88
2022-08-22T12:52:51.967Z,13.82
2022-08-22T12:55:35.542Z,12.52
2022-08-22T12:58:13.775Z,9.25
2022-08-22T13:00:45.346Z,7.95
2022-08-22T13:03:25.109Z,8.90
2022-08-22T13:05:59.128Z,8.15
2022-08-22T13:08:32.428Z,8.40
2022-08-22T13:13:38.854Z,7.03
2022-08-22T13:16:11.922Z,7.10
2022-08-22T13:18:53.539Z,7.60
2022-08-22T13:21:31.828Z,6.95
2022-08-22T13:26:49.117Z,7.45
2022-08-22T13:29:26.507Z,8.48
2022-08-22T13:32:00.672Z,7.10
2022-08-22T13:34:40.590Z,6.85
2022-08-22T13:37:16.812Z,8.05
2022-08-22T13:39:48.951Z,8.32
2022-08-22T13:42:30.203Z,8.05
2022-08-22T13:45:02.988Z,8.77
2022-08-22T13:47:39.711Z,6.65
2022-08-22T13:50:15.057Z,8.38
2022-08-22T13:52:52.319Z,9.18
2022-08-22T13:55:30.353Z,7.60
2022-08-22T13:58:04.634Z,7.85
2022-08-22T14:01:07.746Z,7.55
2022-08-22T14:03:45.627Z,7.20
2022-08-22T14:06:38.299Z,7.25
2022-08-22T14:11:47.941Z,6.72
2022-08-22T14:14:26.560Z,6.65
2022-08-22T14:16:59.574Z,6.75
2022-08-22T14:19:53.084Z,5.57
2022-08-22T14:22:32.276Z,6.07
2022-08-22T14:25:07.519Z,6.20
2022-08-22T14:27:39.720Z,5.55
2022-08-22T14:30:15.823Z,5.72
2022-08-22T14:32:48.539Z,5.20
2022-08-22T14:35:25.462Z,4.72
2022-08-22T14:38:22.162Z,4.32
2022-08-22T14:41:03.221Z,2.92
2022-08-22T14:43:50.072Z,2.08
2022-08-22T14:46:26.692Z,2.55
2022-08-22T14:49:26.955Z,2.22
2022-08-22T14:52:03.169Z,2.13
2022-08-22T14:54:33.815Z,1.75
2022-08-22T14:57:10.173Z,1.83
2022-08-22T14:59:46.399Z,1.52
2022-08-22T15:02:26.499Z,1.90
2022-08-22T15:04:56.211Z,1.90
2022-08-22T15:07:27.422Z,1.75
2022-08-22T15:10:03.020Z,2.10
2022-08-22T15:12:35.156Z,1.80
2022-08-22T15:15:07.431Z,1.98
2022-08-22T15:17:44.846Z,2.20
2022-08-22T15:20:28.138Z,2.10
2022-08-22T15:23:00.310Z,2.08
2022-08-22T15:28:06.799Z,2.30
2022-08-22T15:30:45.055Z,2.72
2022-08-22T15:33:17.478Z,2.75
2022-08-22T15:35:48.956Z,2.50
2022-08-22T15:38:32.948Z,2.25
2022-08-22T15:41:37.819Z,2.17
2022-08-22T15:44:18.265Z,2.42
2022-08-22T15:47:05.431Z,1.92
2022-08-22T15:49:50.773Z,2.13
2022-08-22T15:52:27.236Z,3.05
2022-08-22T15:55:19.105Z,2.00
2022-08-22T15:58:09.165Z,1.90
2022-08-22T16:00:45.054Z,1.80
2022-08-22T16:05:54.552Z,1.65
2022-08-22T16:08:32.908Z,1.80
2022-08-22T16:11:21.525Z,1.60
2022-08-22T16:14:22.845Z,2.17
2022-08-22T16:17:01.311Z,1.95
2022-08-22T16:19:31.291Z,2.47
2022-08-22T16:22:11.219Z,2.03
2022-08-22T16:25:07.100Z,1.92
2022-08-22T16:27:52.287Z,2.10
2022-08-22T16:30:34.820Z,2.08
2022-08-22T16:33:04.623Z,1.70
2022-08-22T16:36:25.037Z,1.90
2022-08-22T16:38:56.707Z,2.20
2022-08-22T16:41:35.585Z,1.80
2022-08-22T16:44:25.020Z,2.13
2022-08-22T16:46:55.618Z,2.13
2022-08-22T16:49:30.618Z,2.50
2022-08-22T16:52:35.605Z,2.00
2022-08-22T16:55:06.948Z,2.17
2022-08-22T16:58:04.928Z,2.58
2022-08-22T17:00:45.591Z,2.05
2022-08-22T17:03:24.538Z,2.00
2022-08-22T17:06:00.484Z,2.05
2022-08-22T17:08:47.564Z,1.88
2022-08-22T17:11:29.951Z,1.90
2022-08-22T17:14:11.557Z,2.10
2022-08-22T17:16:56.450Z,2.07
2022-08-22T17:19:40.160Z,1.92
2022-08-22T17:22:19.308Z,1.90
2022-08-22T17:25:01.288Z,2.20
2022-08-22T17:27:35.185Z,2.65
2022-08-22T17:30:09.422Z,2.30
2022-08-22T17:32:57.201Z,2.22
2022-08-22T17:35:45.711Z,2.55
2022-08-22T17:38:30.593Z,2.90
2022-08-22T17:41:08.187Z,2.40
2022-08-22T17:43:50.263Z,3.20
2022-08-22T17:46:43.184Z,2.50
2022-08-22T17:49:22.482Z,2.45
2022-08-22T17:51:59.546Z,3.65
2022-08-22T17:54:35.697Z,2.92
2022-08-22T17:57:08.677Z,2.63
2022-08-22T17:59:47.052Z,2.75
2022-08-22T18:02:20.444Z,2.58
2022-08-22T18:04:59.317Z,2.47
2022-08-22T18:07:42.248Z,2.53
2022-08-22T18:10:21.347Z,3.15
2022-08-22T18:13:00.502Z,2.78
2022-08-22T18:15:39.821Z,2.63
2022-08-22T18:18:14.598Z,2.80
2022-08-22T18:20:50.587Z,2.15
2022-08-22T18:23:35.425Z,2.53
2022-08-22T18:26:16.244Z,1.50
2022-08-22T18:28:52.641Z,1.52
2022-08-22T18:31:38.633Z,1.55
2022-08-22T18:34:24.791Z,1.55
2022-08-22T18:36:59.670Z,1.20
2022-08-22T18:39:39.569Z,1.48
2022-08-22T18:42:19.648Z,1.75
2022-08-22T18:44:48.362Z,1.40
2022-08-22T18:47:20.973Z,1.45
2022-08-22T18:49:54.513Z,1.60
2022-08-22T18:52:41.212Z,1.63
2022-08-22T18:55:23.672Z,1.77
2022-08-22T18:58:25.430Z,2.30
2022-08-22T19:01:09.243Z,1.92
2022-08-22T19:04:10.017Z,2.15
2022-08-22T19:06:49.398Z,2.00
2022-08-22T19:09:47.823Z,2.08
2022-08-22T19:12:40.445Z,1.77
2022-08-22T19:15:28.875Z,1.65
2022-08-22T19:18:16.397Z,1.70
2022-08-22T19:21:14.023Z,2.08
2022-08-22T19:23:49.604Z,1.90
2022-08-22T19:26:31.239Z,1.52
2022-08-22T19:29:07.705Z,1.80
2022-08-22T19:31:50.740Z,1.33
2022-08-22T19:34:38.730Z,1.40
2022-08-22T19:37:33.039Z,1.05
2022-08-22T19:40:06.076Z,1.20
2022-08-22T19:42:40.427Z,1.27
2022-08-22T19:45:29.507Z,1.20
2022-08-22T19:48:01.823Z,1.35
2022-08-22T19:50:36.151Z,1.58
2022-08-22T19:53:39.631Z,2.95
2022-08-22T19:56:21.559Z,1.40
2022-08-22T19:59:02.393Z,1.48
2022-08-22T20:01:56.635Z,1.80
2022-08-22T20:04:50.126Z,1.50
2022-08-22T20:07:33.287Z,1.60
2022-08-22T20:10:21.625Z,1.30
2022-08-22T20:13:02.423Z,1.50
2022-08-22T20:15:33.529Z,1.38
2022-08-22T20:18:11.907Z,1.40
2022-08-22T20:21:00.497Z,1.73
2022-08-22T20:23:32.438Z,1.50
2022-08-22T20:26:01.628Z,2.40
2022-08-22T20:28:41.457Z,2.15
2022-08-22T20:33:54.000Z,1.92
2022-08-22T20:36:28.142Z,2.00
2022-08-22T20:39:04.348Z,2.15
2022-08-22T20:41:40.573Z,2.13
2022-08-22T20:44:16.106Z,2.13
2022-08-22T20:46:55.273Z,2.13
2022-08-22T20:49:29.657Z,2.42
2022-08-22T20:52:03.250Z,2.40
2022-08-22T20:54:33.972Z,2.10
2022-08-22T20:57:11.328Z,2.30
2022-08-22T20:59:42.320Z,2.75
2022-08-22T21:02:15.860Z,2.05
2022-08-22T21:04:53.686Z,1.58
2022-08-22T21:07:24.498Z,1.40
2022-08-22T21:10:22.496Z,1.40
2022-08-22T21:13:09.464Z,1.50
2022-08-22T21:15:39.846Z,1.30
2022-08-22T21:18:07.976Z,1.40
2022-08-22T21:20:39.977Z,1.30
2022-08-22T21:23:11.515Z,1.20
2022-08-22T21:25:56.527Z,1.30
2022-08-22T21:28:32.242Z,2.05
2022-08-22T21:31:01.979Z,1.70
2022-08-22T21:33:30.338Z,1.40
2022-08-22T21:36:01.105Z,1.40
2022-08-22T21:38:29.820Z,1.85
2022-08-22T21:41:04.727Z,2.78
2022-08-22T21:43:36.959Z,1.98
2022-08-22T21:46:05.891Z,1.65
2022-08-22T21:48:37.871Z,1.77
2022-08-22T21:51:31.946Z,1.30
2022-08-22T21:54:40.261Z,1.42
2022-08-22T21:57:36.656Z,1.33
2022-08-22T22:00:13.810Z,1.38
2022-08-22T22:02:43.853Z,1.30
2022-08-22T22:05:14.282Z,1.70
2022-08-22T22:07:46.843Z,1.60
2022-08-22T22:10:17.962Z,1.73
2022-08-22T22:12:47.865Z,1.95
2022-08-22T22:15:19.831Z,2.25
2022-08-22T22:17:47.904Z,2.40
2022-08-22T22:20:16.589Z,2.20
2022-08-22T22:22:47.165Z,2.20
2022-08-22T22:25:40.211Z,2.22
2022-08-22T22:28:07.441Z,2.78
2022-08-22T22:30:35.715Z,2.85
2022-08-22T22:33:03.875Z,2.67
2022-08-22T22:35:32.394Z,2.80
2022-08-22T22:38:02.299Z,3.70
2022-08-22T22:40:31.162Z,3.25
2022-08-22T22:42:59.418Z,3.42
2022-08-22T22:45:27.491Z,3.40
2022-08-22T22:47:55.624Z,4.05
2022-08-22T22:50:23.790Z,3.63
2022-08-22T22:52:53.025Z,4.57
2022-08-22T22:55:25.545Z,4.03
2022-08-22T22:57:58.729Z,3.92
2022-08-22T23:00:29.113Z,3.75
2022-08-22T23:02:59.813Z,4.28
2022-08-22T23:05:28.110Z,4.40
2022-08-22T23:07:56.301Z,4.32
2022-08-22T23:10:25.834Z,3.67
2022-08-22T23:12:53.965Z,4.28
2022-08-22T23:15:22.362Z,5.60
2022-08-22T23:17:50.447Z,4.97
2022-08-22T23:20:19.034Z,4.97
2022-08-22T23:22:47.766Z,4.68
2022-08-22T23:25:16.202Z,4.38
2022-08-22T23:27:48.799Z,4.82
2022-08-22T23:30:21.150Z,5.25
2022-08-22T23:32:49.411Z,4.75
2022-08-22T23:35:17.580Z,4.95
2022-08-22T23:37:45.694Z,4.50
2022-08-22T23:40:13.881Z,5.30
2022-08-22T23:42:42.204Z,4.13
2022-08-22T23:45:12.470Z,5.07
2022-08-22T23:47:40.609Z,4.97
2022-08-22T23:50:09.035Z,3.78
2022-08-22T23:52:37.097Z,3.47
2022-08-22T23:55:05.673Z,3.40
2022-08-22T23:57:33.755Z,2.92
